Time;durP1;ratioP1;P1;durP2;ratioP2;P2;SDS_P1;SDS_P2;PMS_P1;PMS_P2;Temp;Humidity;BMP_temperature;BMP_pressure;BME280_temperature;BME280_humidity;BME280_pressure;Samples;Min_cycle;Max_cycle;Signal;HPM_P1;HPM_P2
2022/05/13 00:02:14;;;;;;;17.20;7.80;;;;;;;9.16;70.57;100481.34;5095947;28;20349;-57
2022/05/13 00:04:47;;;;;;;13.75;7.53;;;;;;;9.25;70.80;100491.69;5095949;28;20069;-55
2022/05/13 00:07:18;;;;;;;14.32;7.45;;;;;;;9.12;71.22;100467.47;5095281;28;20060;-57
2022/05/13 00:10:05;;;;;;;13.45;7.70;;;;;;;9.30;70.84;100484.72;5095605;28;20046;-57
2022/05/13 00:12:41;;;;;;;15.68;7.68;;;;;;;9.39;70.40;100482.03;5096056;28;20052;-57
2022/05/13 00:15:15;;;;;;;15.75;7.88;;;;;;;9.51;70.96;100470.66;5095692;28;20058;-57
2022/05/13 00:17:48;;;;;;;16.55;7.55;;;;;;;9.70;71.30;100458.28;5095842;28;20107;-58
2022/05/13 00:20:19;;;;;;;17.77;7.80;;;;;;;9.88;70.61;100463.34;5094711;28;20083;-57
2022/05/13 00:22:56;;;;;;;18.27;8.07;;;;;;;10.03;70.54;100461.41;5095373;28;20103;-57
2022/05/13 00:25:28;;;;;;;19.15;8.27;;;;;;;10.14;70.34;100470.00;5095114;28;20402;-56
2022/05/13 00:28:00;;;;;;;19.67;7.47;;;;;;;9.60;68.67;100357.50;5095156;28;20227;-57
2022/05/13 00:30:33;;;;;;;14.15;7.65;;;;;;;10.19;68.08;100463.00;5095467;28;20326;-56
2022/05/13 00:33:06;;;;;;;28.38;9.40;;;;;;;10.24;67.73;100452.50;5095445;28;20048;-56
2022/05/13 00:35:37;;;;;;;16.75;8.27;;;;;;;10.38;68.35;100462.78;5095871;28;20051;-56
2022/05/13 00:38:08;;;;;;;22.17;9.07;;;;;;;10.52;67.97;100466.09;5095793;28;20069;-56
2022/05/13 00:40:39;;;;;;;14.48;8.63;;;;;;;10.64;67.67;100455.50;5095572;28;20421;-56
2022/05/13 00:43:12;;;;;;;18.67;8.70;;;;;;;10.49;67.52;100416.50;5093469;28;20058;-57
2022/05/13 00:45:43;;;;;;;26.75;12.57;;;;;;;10.76;67.74;100437.03;5095256;28;20052;-55
2022/05/13 00:48:15;;;;;;;36.72;18.98;;;;;;;10.97;67.56;100448.06;5095478;28;20052;-57
2022/05/13 00:50:46;;;;;;;25.98;11.50;;;;;;;11.00;67.59;100443.63;5095390;28;20115;-57
2022/05/13 00:53:16;;;;;;;19.60;8.65;;;;;;;11.02;68.49;100441.00;5093709;28;20056;-56
2022/05/13 00:55:48;;;;;;;20.95;9.05;;;;;;;11.03;68.00;100440.09;5095049;28;20048;-58
2022/05/13 00:58:20;;;;;;;19.58;9.60;;;;;;;10.87;67.85;100409.88;5094704;28;20052;-57
2022/05/13 01:00:51;;;;;;;22.33;9.68;;;;;;;10.96;67.62;100430.66;5094771;28;20131;-58
2022/05/13 01:03:23;;;;;;;23.98;10.38;;;;;;;10.99;67.59;100430.59;5095036;28;20304;-55
2022/05/13 01:05:57;;;;;;;34.13;10.88;;;;;;;11.12;67.49;100442.56;5095044;28;20059;-57
2022/05/13 01:08:32;;;;;;;27.50;9.30;;;;;;;11.20;67.07;100434.59;5094874;28;20052;-57
2022/05/13 01:11:06;;;;;;;23.52;10.20;;;;;;;11.20;67.28;100425.00;5094143;28;20115;-57
2022/05/13 01:13:38;;;;;;;30.17;11.05;;;;;;;11.41;67.50;100428.19;5094764;28;20079;-57
2022/05/13 01:16:08;;;;;;;28.23;10.05;;;;;;;11.57;66.55;100424.38;5094710;28;20059;-56
2022/05/13 01:18:42;;;;;;;25.50;10.65;;;;;;;11.81;66.46;100428.31;5094706;28;20052;-57
2022/05/13 01:21:15;;;;;;;26.55;10.55;;;;;;;12.03;66.05;100423.56;5094299;28;20058;-56
2022/05/13 01:23:48;;;;;;;29.38;11.10;;;;;;;12.24;65.34;100416.16;5094771;28;20048;-57
2022/05/13 01:26:22;;;;;;;28.45;10.30;;;;;;;12.47;64.22;100408.66;5094533;28;20059;-55
2022/05/13 01:28:54;;;;;;;29.63;11.32;;;;;;;12.71;63.60;100406.41;5094539;28;20180;-57
2022/05/13 01:31:27;;;;;;;28.23;10.70;;;;;;;12.86;63.50;100390.31;5094631;28;20066;-56
2022/05/13 01:33:58;;;;;;;34.00;10.35;;;;;;;12.98;62.79;100372.53;5094804;28;20056;-56
2022/05/13 01:36:30;;;;;;;30.58;11.85;;;;;;;13.28;62.39;100395.44;5094536;28;20054;-57
2022/05/13 01:39:02;;;;;;;33.78;13.48;;;;;;;13.50;62.38;100397.50;5093702;28;20139;-56
2022/05/13 01:41:33;;;;;;;30.10;11.13;;;;;;;13.72;62.02;100392.53;5094270;28;20508;-56
2022/05/13 01:44:04;;;;;;;34.00;12.38;;;;;;;13.88;61.37;100377.19;5094372;28;20036;-55
2022/05/13 01:46:35;;;;;;;31.45;12.10;;;;;;;14.10;60.33;100388.81;5094303;28;20157;-56
2022/05/13 01:49:06;;;;;;;24.40;11.00;;;;;;;14.32;59.59;100388.19;5094277;28;20052;-56
2022/05/13 01:51:37;;;;;;;28.08;12.65;;;;;;;14.62;59.79;100381.19;5094653;28;20056;-57
2022/05/13 01:54:09;;;;;;;32.67;12.25;;;;;;;14.94;58.81;100393.31;5094369;28;20048;-56
2022/05/13 01:56:40;;;;;;;30.65;12.32;;;;;;;15.21;58.41;100391.56;5093822;28;20059;-55
2022/05/13 01:59:10;;;;;;;33.97;12.03;;;;;;;15.35;57.66;100382.31;5093775;28;20047;-56
2022/05/13 02:01:41;;;;;;;30.87;11.13;;;;;;;15.46;57.72;100394.22;5093441;28;20290;-55
2022/05/13 02:04:12;;;;;;;39.33;11.67;;;;;;;15.44;57.07;100397.81;5093891;28;20611;-56
2022/05/13 02:06:42;;;;;;;27.70;11.10;;;;;;;15.37;57.50;100385.75;5094207;28;20286;-56
2022/05/13 02:09:15;;;;;;;22.33;10.27;;;;;;;15.38;56.76;100392.75;5093831;28;20286;-56
2022/05/13 02:11:46;;;;;;;34.60;12.77;;;;;;;15.34;56.89;100392.00;5093638;28;20286;-57
2022/05/13 02:14:17;;;;;;;27.20;10.20;;;;;;;15.27;55.89;100380.81;5092690;28;20286;-56
2022/05/13 02:16:48;;;;;;;20.37;9.23;;;;;;;15.29;55.49;100394.78;5093691;28;20285;-55
2022/05/13 02:19:18;;;;;;;24.17;8.87;;;;;;;15.33;55.45;100392.91;5093505;28;20328;-56
2022/05/13 02:21:49;;;;;;;15.93;8.40;;;;;;;15.44;55.33;100396.03;5089662;28;20546;-55
2022/05/13 02:24:22;;;;;;;16.40;8.60;;;;;;;15.64;55.29;100389.22;5084923;28;20370;-55
2022/05/13 02:26:52;;;;;;;18.53;8.00;;;;;;;15.80;54.16;100393.06;5075857;28;20321;-57
2022/05/13 02:29:23;;;;;;;14.70;7.20;;;;;;;16.07;53.55;100388.53;5076189;28;20293;-56
2022/05/13 02:31:53;;;;;;;17.13;8.00;;;;;;;16.29;52.76;100385.97;5076840;28;20279;-57
2022/05/13 02:34:24;;;;;;;11.30;6.20;;;;;;;16.44;51.83;100384.53;5076785;28;20342;-57
2022/05/13 02:36:55;;;;;;;11.77;5.37;;;;;;;16.53;52.11;100388.59;5077194;28;20344;-58
2022/05/13 02:39:27;;;;;;;9.93;5.97;;;;;;;16.66;52.09;100381.91;5076985;28;20279;-57
2022/05/13 02:41:58;;;;;;;15.83;6.00;;;;;;;16.78;50.63;100381.44;5076924;28;20294;-57
2022/05/13 02:44:28;;;;;;;12.40;5.43;;;;;;;16.84;50.46;100374.22;5076920;28;20283;-58
2022/05/13 02:46:59;;;;;;;9.73;4.60;;;;;;;16.95;50.32;100377.28;5076983;28;20282;-57
2022/05/13 02:49:30;;;;;;;10.07;4.40;;;;;;;16.96;49.86;100373.72;5076733;28;20297;-57
2022/05/13 02:52:00;;;;;;;9.87;4.50;;;;;;;16.93;48.88;100373.84;5076802;28;20302;-57
2022/05/13 02:54:33;;;;;;;10.77;4.83;;;;;;;16.53;48.43;100343.75;5076648;28;20350;-58
2022/05/13 02:57:04;;;;;;;12.53;5.27;;;;;;;16.63;49.17;100366.22;5076806;28;20295;-57
2022/05/13 02:59:35;;;;;;;11.47;5.50;;;;;;;16.60;49.28;100371.63;5076281;28;20626;-57
2022/05/13 03:02:06;;;;;;;12.50;5.03;;;;;;;16.62;48.99;100364.47;5076924;28;20282;-57
2022/05/13 03:04:36;;;;;;;8.80;4.00;;;;;;;16.67;48.98;100367.78;5076892;28;20287;-57
2022/05/13 03:07:07;;;;;;;9.60;4.20;;;;;;;16.83;48.98;100375.16;5077169;28;20351;-58
2022/05/13 03:09:39;;;;;;;9.37;4.67;;;;;;;16.96;48.72;100365.78;5077221;28;20291;-57
2022/05/13 03:12:12;;;;;;;7.63;4.60;;;;;;;16.90;48.07;100363.38;5076918;28;20341;-57
2022/05/13 03:14:43;;;;;;;10.57;4.80;;;;;;;16.86;47.45;100367.09;5076886;28;20298;-58
2022/05/13 03:17:13;;;;;;;10.60;4.47;;;;;;;16.91;47.66;100359.84;5076488;28;20681;-57
2022/05/13 03:19:44;;;;;;;10.20;4.80;;;;;;;16.95;47.93;100350.88;5076283;28;20282;-58
2022/05/13 03:22:15;;;;;;;9.87;4.90;;;;;;;17.07;46.98;100339.78;5076754;28;20638;-57
2022/05/13 03:24:47;;;;;;;11.23;4.83;;;;;;;17.17;47.21;100356.09;5077643;28;20488;-57
2022/05/13 03:27:18;;;;;;;11.50;5.00;;;;;;;17.29;47.13;100344.16;5080066;28;20297;-58
2022/05/13 03:29:48;;;;;;;9.23;5.03;;;;;;;17.29;46.88;100338.88;5080032;28;20576;-57
2022/05/13 03:32:19;;;;;;;12.20;5.23;;;;;;;17.18;46.42;100337.56;5094947;28;20725;-57
2022/05/13 03:34:50;;;;;;;10.53;4.73;;;;;;;17.24;46.91;100337.28;5100867;28;20289;-57
2022/05/13 03:37:21;;;;;;;9.47;4.87;;;;;;;17.39;46.84;100329.66;5100824;28;20301;-58
2022/05/13 03:39:54;;;;;;;8.57;4.83;;;;;;;17.52;46.56;100320.25;5100450;28;20274;-58
2022/05/13 03:42:25;;;;;;;23.70;6.20;;;;;;;17.59;46.11;100321.69;5100557;28;20317;-57
2022/05/13 03:44:56;;;;;;;10.47;5.30;;;;;;;17.67;45.81;100318.72;5100381;28;20282;-57
2022/05/13 03:47:27;;;;;;;9.90;4.83;;;;;;;17.56;45.41;100292.78;5100668;28;20305;-57
2022/05/13 03:49:58;;;;;;;16.97;5.10;;;;;;;17.59;45.86;100305.00;5100262;28;20305;-58
2022/05/13 03:52:29;;;;;;;12.47;5.70;;;;;;;17.58;45.60;100320.00;5100189;28;20345;-58
2022/05/13 03:55:01;;;;;;;17.87;6.10;;;;;;;17.60;46.17;100322.56;5100193;28;20535;-57
2022/05/13 03:57:32;;;;;;;11.53;5.23;;;;;;;17.62;46.35;100320.69;5100118;28;20274;-56
2022/05/13 04:00:03;;;;;;;14.33;5.57;;;;;;;17.58;46.45;100313.84;5100134;28;20292;-57
2022/05/13 04:02:34;;;;;;;13.20;5.60;;;;;;;17.68;46.45;100310.72;5097128;28;20361;-57
2022/05/13 04:10:41;;;;;;;11.57;5.03;;;;;;;18.27;46.16;100302.75;5098050;28;20367;-57
2022/05/13 04:16:08;;;;;;;15.23;5.47;;;;;;;18.39;45.17;100315.41;5099989;28;20325;-57
2022/05/13 04:18:41;;;;;;;12.27;5.20;;;;;;;18.31;44.55;100310.47;5099707;28;20679;-57
2022/05/13 04:21:17;;;;;;;18.30;5.40;;;;;;;18.29;45.43;100300.91;5097975;28;20309;-58
2022/05/13 04:23:50;;;;;;;10.03;4.90;;;;;;;18.24;44.85;100310.84;5099472;28;20527;-57
2022/05/13 04:26:23;;;;;;;13.80;5.03;;;;;;;18.23;45.22;100301.22;5099693;28;20321;-57
2022/05/13 04:28:55;;;;;;;11.33;5.10;;;;;;;18.28;44.62;100302.69;5099851;28;20313;-58
2022/05/13 04:31:27;;;;;;;12.47;5.83;;;;;;;18.41;45.91;100316.19;5097578;28;20671;-57
2022/05/13 04:33:59;;;;;;;13.00;6.23;;;;;;;18.54;45.52;100309.34;5099555;28;20584;-57
2022/05/13 04:36:30;;;;;;;14.43;6.60;;;;;;;18.44;45.14;100304.59;5099116;28;20655;-57
2022/05/13 04:39:01;;;;;;;15.90;5.60;;;;;;;18.40;45.14;100314.50;5099483;28;20290;-57
2022/05/13 04:44:21;;;;;;;9.88;5.40;;;;;;;18.53;45.65;100302.38;5099539;28;20293;-58
2022/05/13 04:46:51;;;;;;;15.87;6.00;;;;;;;18.76;45.18;100297.75;5099450;28;20272;-58
2022/05/13 04:49:22;;;;;;;11.30;6.30;;;;;;;19.02;45.95;100299.13;5099245;28;20286;-58
2022/05/13 04:51:56;;;;;;;8.90;5.50;;;;;;;19.19;43.63;100290.28;5097796;28;20333;-58
2022/05/13 04:54:27;;;;;;;21.40;6.33;;;;;;;19.19;43.84;100298.22;5098973;28;20278;-58
2022/05/13 04:56:59;;;;;;;14.87;5.63;;;;;;;19.12;44.34;100291.53;5098969;28;20286;-58
2022/05/13 04:59:30;;;;;;;10.87;6.50;;;;;;;18.92;43.76;100293.44;5098911;28;20476;-58
2022/05/13 05:02:00;;;;;;;11.27;6.43;;;;;;;18.80;44.93;100286.09;5091250;28;20346;-58
2022/05/13 05:04:31;;;;;;;11.30;5.70;;;;;;;18.78;45.07;100297.69;5089856;28;20294;-59
2022/05/13 05:07:02;;;;;;;11.90;5.90;;;;;;;18.67;44.48;100295.53;5098547;28;20278;-58
2022/05/13 05:09:35;;;;;;;11.23;6.17;;;;;;;18.53;45.05;100283.84;5098805;28;20317;-58
2022/05/13 05:12:09;;;;;;;15.47;6.30;;;;;;;18.48;45.04;100296.44;5087386;28;20330;-58
2022/05/13 05:14:40;;;;;;;10.33;6.03;;;;;;;18.33;45.54;100302.47;5078528;28;20350;-58
2022/05/13 05:17:10;;;;;;;17.87;6.53;;;;;;;18.28;45.81;100294.75;5078479;28;20283;-58
2022/05/13 05:19:41;;;;;;;14.23;7.57;;;;;;;18.26;46.26;100287.84;5078336;28;20358;-57
2022/05/13 05:22:11;;;;;;;18.20;7.57;;;;;;;18.10;46.47;100296.50;5095039;28;20324;-57
2022/05/13 05:24:42;;;;;;;21.70;7.50;;;;;;;17.99;46.03;100298.78;5098474;28;20461;-58
2022/05/13 05:27:15;;;;;;;20.07;6.83;;;;;;;17.87;46.54;100304.63;5098730;28;20345;-57
2022/05/13 05:29:46;;;;;;;15.90;8.13;;;;;;;17.76;47.05;100301.59;5099213;28;20290;-58
2022/05/13 05:32:17;;;;;;;18.50;6.80;;;;;;;17.72;47.11;100303.50;5096791;28;20305;-58
2022/05/13 05:34:48;;;;;;;13.37;7.37;;;;;;;17.67;47.51;100298.44;5098636;28;20297;-57
2022/05/13 05:37:18;;;;;;;10.77;6.57;;;;;;;17.62;47.44;100304.84;5098684;28;20503;-58
2022/05/13 05:39:49;;;;;;;13.80;6.93;;;;;;;17.46;46.66;100307.31;5098710;28;20368;-58
2022/05/13 05:42:21;;;;;;;12.67;6.73;;;;;;;17.33;47.78;100303.50;5096677;28;20345;-58
2022/05/13 05:44:52;;;;;;;18.37;7.07;;;;;;;17.28;47.20;100306.34;5098455;28;20285;-58
2022/05/13 05:47:23;;;;;;;12.07;6.87;;;;;;;17.32;47.54;100300.00;5097437;28;20286;-58
2022/05/13 05:49:54;;;;;;;11.00;6.33;;;;;;;17.32;47.35;100301.78;5097888;28;20286;-58
2022/05/13 05:52:24;;;;;;;11.03;6.70;;;;;;;17.31;47.44;100297.44;5096553;28;20302;-58
2022/05/13 05:57:58;;;;;;;14.33;6.90;;;;;;;17.15;48.21;100305.16;5098013;28;20353;-58
2022/05/13 06:00:30;;;;;;;10.87;6.77;;;;;;;17.06;48.22;100305.56;5096440;28;20345;-57
2022/05/13 06:03:01;;;;;;;7.77;5.63;;;;;;;17.00;48.26;100296.13;5077436;28;20299;-58
2022/05/13 06:05:32;;;;;;;10.90;6.70;;;;;;;17.02;48.47;100294.25;5077375;28;20317;-58
2022/05/13 06:08:04;;;;;;;19.60;6.47;;;;;;;16.97;48.06;100301.50;5082064;28;20291;-57
2022/05/13 06:10:36;;;;;;;9.50;6.00;;;;;;;16.75;48.44;100286.56;5087692;28;20293;-58
2022/05/13 06:13:10;;;;;;;17.80;6.23;;;;;;;16.84;48.85;100302.94;5096664;28;20298;-58
2022/05/13 06:15:40;;;;;;;13.47;7.40;;;;;;;16.74;48.64;100308.56;5096539;28;20329;-57
2022/05/13 06:18:11;;;;;;;15.77;7.27;;;;;;;16.79;49.34;100298.72;5087544;28;20304;-59
2022/05/13 06:20:42;;;;;;;13.30;6.07;;;;;;;16.88;48.62;100304.56;5095488;28;20282;-57
2022/05/13 06:23:13;;;;;;;13.50;7.13;;;;;;;16.91;48.80;100317.63;5096411;28;20389;-57
2022/05/13 06:25:43;;;;;;;13.83;6.40;;;;;;;16.87;48.65;100310.72;5090554;28;20353;-57
2022/05/13 06:28:15;;;;;;;10.63;6.70;;;;;;;16.97;49.16;100322.63;5087398;28;20310;-56
2022/05/13 06:30:46;;;;;;;12.83;6.90;;;;;;;16.98;48.50;100324.34;5077243;28;20333;-56
2022/05/13 06:33:17;;;;;;;13.63;7.23;;;;;;;16.89;48.47;100324.72;5084697;28;20322;-56
2022/05/13 06:35:47;;;;;;;12.63;7.10;;;;;;;16.84;48.31;100321.44;5094194;28;20321;-57
2022/05/13 06:38:20;;;;;;;46.87;8.60;;;;;;;16.68;48.34;100300.91;5094282;28;20289;-57
2022/05/13 06:40:52;;;;;;;13.70;7.60;;;;;;;16.62;48.81;100298.50;5094581;28;20322;-57
2022/05/13 06:43:25;;;;;;;19.50;7.80;;;;;;;16.63;49.02;100302.88;5092609;28;20311;-57
2022/05/13 06:45:55;;;;;;;17.10;7.53;;;;;;;16.68;48.72;100311.47;5090060;28;20526;-57
2022/05/13 06:48:26;;;;;;;13.60;6.70;;;;;;;16.50;49.20;100306.94;5097329;28;20278;-58
2022/05/13 06:50:57;;;;;;;11.83;7.30;;;;;;;16.34;49.53;100310.19;5090182;28;20289;-58
2022/05/13 06:53:27;;;;;;;10.37;6.50;;;;;;;16.18;48.65;100316.97;5092526;28;20300;-58
2022/05/13 06:55:58;;;;;;;37.53;8.27;;;;;;;15.98;48.99;100304.56;5092904;28;20290;-58
2022/05/13 06:58:30;;;;;;;16.87;7.33;;;;;;;15.94;49.41;100309.06;5093642;28;20277;-58
2022/05/13 07:01:01;;;;;;;20.83;7.50;;;;;;;15.91;49.83;100322.38;5096819;28;20285;-57
2022/05/13 07:03:32;;;;;;;30.97;16.63;;;;;;;15.81;49.87;100318.38;5096109;28;20352;-58
2022/05/13 07:06:02;;;;;;;72.40;42.37;;;;;;;15.70;50.27;100312.63;5095868;28;20262;-57
2022/05/13 07:08:33;;;;;;;17.67;11.70;;;;;;;15.68;50.58;100322.34;5094269;28;20588;-58
2022/05/13 07:11:04;;;;;;;37.33;19.80;;;;;;;15.60;50.63;100319.13;5096026;28;20381;-57
2022/05/13 07:13:38;;;;;;;56.20;30.57;;;;;;;15.63;49.99;100314.59;5095998;28;20305;-57
2022/05/13 07:16:09;;;;;;;17.33;8.57;;;;;;;15.75;49.79;100313.34;5096366;28;20286;-57
2022/05/13 07:18:42;;;;;;;14.73;6.73;;;;;;;15.68;49.74;100306.53;5096642;28;20335;-58
2022/05/13 07:21:12;;;;;;;27.33;7.17;;;;;;;15.58;49.65;100305.16;5095714;28;20290;-58
2022/05/13 07:23:43;;;;;;;50.77;18.33;;;;;;;15.45;50.13;100309.97;5096119;28;20692;-57
2022/05/13 07:26:14;;;;;;;16.00;8.00;;;;;;;15.39;49.79;100321.59;5095676;28;20410;-58
2022/05/13 07:28:46;;;;;;;19.03;7.50;;;;;;;15.31;50.06;100319.25;5096519;28;20292;-59
2022/05/13 07:31:17;;;;;;;44.50;20.03;;;;;;;15.31;50.51;100327.13;5096330;28;20647;-59
2022/05/13 07:33:48;;;;;;;40.03;17.63;;;;;;;15.31;51.06;100319.25;5096090;28;20638;-58
2022/05/13 07:36:18;;;;;;;31.90;13.50;;;;;;;15.34;51.03;100323.53;5096528;28;20286;-59
2022/05/13 07:41:42;;;;;;;36.10;11.00;;;;;;;15.20;51.59;100307.34;5096262;28;20358;-58
2022/05/13 07:44:15;;;;;;;24.97;8.37;;;;;;;15.26;51.88;100315.06;5095468;28;20646;-59
2022/05/13 07:46:45;;;;;;;24.17;8.90;;;;;;;15.25;51.37;100302.78;5093641;28;20318;-58
2022/05/13 07:49:16;;;;;;;36.10;8.80;;;;;;;15.12;51.11;100290.97;5093297;28;20507;-59
2022/05/13 07:51:47;;;;;;;18.07;8.07;;;;;;;15.12;51.10;100306.78;5094588;28;20373;-59
2022/05/13 07:54:17;;;;;;;24.17;7.97;;;;;;;15.05;51.12;100301.75;5093803;28;20503;-58
2022/05/13 07:56:48;;;;;;;89.53;12.13;;;;;;;15.00;51.44;100308.03;5093996;28;20305;-57
2022/05/13 07:59:20;;;;;;;24.93;7.00;;;;;;;14.91;51.50;100300.47;5093531;28;20511;-57
2022/05/13 08:01:51;;;;;;;16.87;7.27;;;;;;;14.80;51.76;100300.81;5095142;28;20597;-57
2022/05/13 08:04:21;;;;;;;28.93;8.70;;;;;;;14.72;51.85;100292.34;5094761;28;20322;-57
2022/05/13 08:06:52;;;;;;;15.53;7.70;;;;;;;14.70;52.29;100294.16;5094046;28;20721;-57
2022/05/13 08:09:22;;;;;;;14.03;7.13;;;;;;;14.63;52.35;100289.09;5093781;28;20290;-58
2022/05/13 08:11:53;;;;;;;15.80;8.10;;;;;;;14.55;52.84;100295.50;5092213;28;20331;-57
2022/05/13 08:14:25;;;;;;;18.80;9.40;;;;;;;14.46;53.66;100283.50;5094942;28;20290;-58
2022/05/13 08:16:56;;;;;;;16.53;8.70;;;;;;;14.45;53.96;100280.00;5091580;28;20567;-57
2022/05/13 08:19:27;;;;;;;25.23;9.37;;;;;;;14.55;53.89;100291.13;5093483;28;20294;-58
2022/05/13 08:21:58;;;;;;;23.47;8.57;;;;;;;14.42;53.29;100279.22;5094622;28;20468;-57
2022/05/13 08:24:28;;;;;;;26.50;9.47;;;;;;;14.43;53.33;100280.97;5094613;28;20310;-57
2022/05/13 08:26:59;;;;;;;24.93;11.70;;;;;;;14.48;53.31;100300.09;5094315;28;20313;-57
2022/05/13 08:29:31;;;;;;;74.97;22.07;;;;;;;14.47;53.05;100300.97;5095095;28;20458;-57
2022/05/13 08:32:02;;;;;;;102.90;34.10;;;;;;;14.35;53.19;100289.09;5094263;28;20286;-56
2022/05/13 08:34:33;;;;;;;87.10;27.67;;;;;;;14.28;53.63;100291.94;5094145;28;20484;-57
2022/05/13 08:37:04;;;;;;;53.87;14.07;;;;;;;14.22;53.85;100299.09;5095589;28;20316;-58
2022/05/13 08:39:36;;;;;;;49.70;14.60;;;;;;;14.16;53.95;100299.31;5094610;28;20739;-57
2022/05/13 08:42:24;;;;;;;47.23;15.10;;;;;;;14.10;54.33;100298.63;5094859;28;20286;-58
2022/05/13 08:44:56;;;;;;;34.23;12.10;;;;;;;14.01;54.55;100303.25;5094080;28;20290;-58
2022/05/13 08:47:36;;;;;;;44.67;12.97;;;;;;;13.89;55.13;100295.75;5095516;28;20530;-58
2022/05/13 08:50:11;;;;;;;26.47;10.73;;;;;;;13.80;55.62;100302.13;5095076;28;20324;-57
2022/05/13 08:55:42;;;;;;;51.28;16.70;;;;;;;13.75;56.01;100306.66;5095221;28;20730;-59
2022/05/13 08:58:18;;;;;;;49.85;10.80;;;;;;;13.51;56.77;100279.34;5095088;28;20093;-57
2022/05/13 09:00:55;;;;;;;31.73;12.13;;;;;;;13.66;56.70;100309.53;5095370;28;20060;-58
2022/05/13 09:03:36;;;;;;;32.93;11.00;;;;;;;13.57;56.67;100315.03;5094804;28;20056;-58
2022/05/13 09:06:12;;;;;;;28.60;14.23;;;;;;;13.44;56.40;100316.28;5095000;28;20290;-57
2022/05/13 09:08:48;;;;;;;18.60;9.85;;;;;;;13.33;56.00;100322.69;5094815;28;20044;-57
2022/05/13 09:11:30;;;;;;;36.58;12.63;;;;;;;13.06;55.84;100308.50;5094997;28;20054;-58
2022/05/13 09:14:11;;;;;;;65.75;27.95;;;;;;;13.15;56.25;100328.38;5094965;28;20094;-57
2022/05/13 09:16:51;;;;;;;95.15;40.75;;;;;;;13.07;56.52;100325.97;5095120;28;20263;-57
2022/05/13 09:19:34;;;;;;;75.90;33.47;;;;;;;12.97;56.83;100318.38;5094767;28;20048;-58
2022/05/13 09:22:06;;;;;;;62.22;25.40;;;;;;;13.02;56.83;100342.72;5093687;28;20091;-57
2022/05/13 09:24:37;;;;;;;53.08;21.00;;;;;;;12.88;57.21;100333.44;5094603;28;20067;-56
2022/05/13 09:27:27;;;;;;;77.60;26.50;;;;;;;12.86;57.53;100348.34;5094742;28;20052;-56
2022/05/13 09:29:58;;;;;;;29.05;12.60;;;;;;;12.86;57.64;100353.59;5094547;28;20059;-56
2022/05/13 09:32:32;;;;;;;36.55;11.98;;;;;;;12.71;57.52;100328.59;5094485;28;20466;-57
2022/05/13 09:35:10;;;;;;;23.67;12.50;;;;;;;12.66;57.78;100350.59;5094738;28;20340;-57
2022/05/13 09:37:44;;;;;;;25.15;11.35;;;;;;;12.45;58.08;100342.31;5094633;28;20051;-58
2022/05/13 09:40:26;;;;;;;26.42;10.98;;;;;;;11.79;58.56;100261.69;5094440;28;20146;-57
2022/05/13 09:42:58;;;;;;;16.92;10.00;;;;;;;12.27;58.86;100358.44;5094122;28;20511;-58
2022/05/13 09:45:31;;;;;;;22.00;10.82;;;;;;;12.33;58.64;100358.34;5093922;28;20048;-57
2022/05/13 09:48:12;;;;;;;16.52;11.07;;;;;;;11.89;58.51;100278.94;5094105;28;20046;-57
2022/05/13 09:50:45;;;;;;;32.35;10.60;;;;;;;12.29;58.58;100346.19;5094133;28;20066;-57
2022/05/13 09:53:33;;;;;;;24.55;10.23;;;;;;;12.27;58.05;100353.22;5094115;28;20245;-56
2022/05/13 09:56:06;;;;;;;17.27;9.23;;;;;;;12.13;57.99;100329.06;5093899;28;20062;-57
2022/05/13 09:58:54;;;;;;;118.25;14.05;;;;;;;12.21;58.14;100342.88;5094351;28;20226;-57
2022/05/13 10:01:29;;;;;;;64.38;14.18;;;;;;;12.15;58.74;100350.84;5094246;28;20071;-55
2022/05/13 10:04:10;;;;;;;21.40;9.50;;;;;;;11.90;59.25;100338.28;5093807;28;20055;-57
2022/05/13 10:06:43;;;;;;;29.98;10.50;;;;;;;11.74;59.08;100315.91;5093660;28;20052;-57
2022/05/13 10:15:25;;;;;;;18.38;9.68;;;;;;;11.90;59.17;100369.69;5094015;28;20052;-56
2022/05/13 10:18:03;;;;;;;24.23;9.65;;;;;;;11.90;59.51;100379.31;5093972;28;20067;-57
2022/05/13 10:20:41;;;;;;;29.80;17.98;;;;;;;11.90;59.47;100382.78;5093375;28;20088;-57
2022/05/13 10:23:19;;;;;;;37.03;22.88;;;;;;;11.78;60.12;100380.38;5093435;28;20115;-58
2022/05/13 10:25:56;;;;;;;42.17;26.05;;;;;;;11.67;60.69;100372.72;5093650;28;20086;-58
2022/05/13 10:28:34;;;;;;;86.57;17.63;;;;;;;11.53;61.03;100365.16;5093499;28;20066;-57
2022/05/13 10:31:10;;;;;;;28.02;10.07;;;;;;;11.56;60.84;100365.09;5093362;28;20055;-57
2022/05/13 10:33:46;;;;;;;32.95;10.00;;;;;;;11.37;60.93;100335.78;5093010;28;20048;-58
2022/05/13 10:36:26;;;;;;;31.20;11.05;;;;;;;11.14;60.90;100319.66;5093404;28;20051;-58
2022/05/13 10:39:04;;;;;;;23.58;10.90;;;;;;;11.54;60.56;100392.19;5093481;28;20051;-57
2022/05/13 10:41:44;;;;;;;23.42;11.40;;;;;;;11.50;60.95;100396.59;5093426;28;20059;-57
2022/05/13 10:44:22;;;;;;;37.60;23.85;;;;;;;11.43;61.36;100400.19;5093050;28;20051;-57
2022/05/13 10:46:55;;;;;;;38.92;22.10;;;;;;;11.26;61.59;100402.25;5093465;28;20044;-57
2022/05/13 10:49:40;;;;;;;54.97;33.60;;;;;;;11.26;61.95;100382.22;5093384;28;20123;-57
2022/05/13 10:52:23;;;;;;;66.18;31.75;;;;;;;11.33;62.18;100390.78;5093173;28;20126;-57
2022/05/13 10:55:01;;;;;;;49.05;24.73;;;;;;;11.26;62.25;100389.16;5093341;28;20074;-57
2022/05/13 10:57:36;;;;;;;34.35;14.02;;;;;;;11.25;62.50;100398.78;5093403;28;20123;-58
2022/05/13 11:00:15;;;;;;;41.75;16.02;;;;;;;11.19;62.54;100397.13;5093153;28;20044;-58
2022/05/13 11:03:12;;;;;;;27.40;14.68;;;;;;;11.15;63.13;100400.69;5093230;28;20060;-58
2022/05/13 11:05:54;;;;;;;62.60;27.70;;;;;;;11.13;63.51;100406.81;5092005;28;20055;-57
2022/05/13 11:08:38;;;;;;;34.30;15.38;;;;;;;11.04;63.56;100402.63;5093013;28;20051;-57
2022/05/13 11:11:24;;;;;;;28.70;11.85;;;;;;;11.05;63.92;100408.72;5093125;28;20110;-58
2022/05/13 11:14:08;;;;;;;18.23;10.68;;;;;;;11.02;64.00;100401.78;5093110;28;20048;-58
2022/05/13 11:16:50;;;;;;;21.95;10.50;;;;;;;10.78;64.14;100364.69;5093193;28;20070;-59
2022/05/13 11:19:28;;;;;;;18.60;10.07;;;;;;;11.01;64.25;100407.91;5075879;28;20327;-57
2022/05/13 11:22:04;;;;;;;30.20;10.32;;;;;;;10.76;64.69;100374.31;5072569;28;20068;-58
2022/05/13 11:28:01;;;;;;;23.92;11.93;;;;;;;10.78;65.37;100401.28;5072941;28;20064;-57
2022/05/13 11:30:42;;;;;;;18.90;11.45;;;;;;;10.72;65.66;100400.50;5072661;28;20048;-58
2022/05/13 11:33:25;;;;;;;24.58;12.40;;;;;;;10.75;65.62;100398.69;5073245;28;20060;-58
2022/05/13 11:36:14;;;;;;;20.83;12.20;;;;;;;10.51;65.89;100354.66;5072694;28;20040;-59
2022/05/13 11:39:09;;;;;;;24.83;13.20;;;;;;;10.65;66.09;100399.72;5071899;28;20154;-58
2022/05/13 11:41:49;;;;;;;27.67;12.80;;;;;;;10.58;66.33;100395.47;5070385;28;20292;-57
2022/05/13 11:44:49;;;;;;;20.55;11.88;;;;;;;10.48;66.67;100393.88;5071250;28;20056;-58
2022/05/13 11:47:27;;;;;;;23.80;12.98;;;;;;;10.31;66.62;100358.41;5075702;28;20036;-57
2022/05/13 11:49:59;;;;;;;40.05;12.73;;;;;;;10.48;66.89;100396.47;5076135;28;20076;-57
2022/05/13 11:52:49;;;;;;;31.70;13.25;;;;;;;10.26;66.99;100374.97;5075911;28;20084;-56
2022/05/13 11:55:23;;;;;;;26.92;13.65;;;;;;;10.35;67.43;100380.97;5075074;28;20060;-57
2022/05/13 11:57:56;;;;;;;27.55;14.00;;;;;;;10.15;67.88;100372.50;5075944;28;20060;-57
2022/05/13 12:00:41;;;;;;;20.48;12.63;;;;;;;10.22;68.08;100387.22;5076192;28;20222;-56
2022/05/13 12:03:21;;;;;;;29.92;12.98;;;;;;;10.17;68.00;100381.19;5076122;28;20052;-58
2022/05/13 12:06:04;;;;;;;25.63;12.02;;;;;;;10.17;68.36;100375.09;5076205;28;20067;-58
2022/05/13 12:08:43;;;;;;;24.17;11.60;;;;;;;10.16;67.93;100353.38;5075463;28;20052;-56
2022/05/13 12:11:40;;;;;;;25.23;13.15;;;;;;;10.36;67.91;100367.03;5074349;28;20044;-53
2022/05/13 12:14:25;;;;;;;23.75;12.80;;;;;;;10.41;67.58;100353.03;5075320;28;20119;-57